createdAt,value
2022-11-17T00:00:13.207Z,3.97
2022-11-17T00:02:40.251Z,3.79
2022-11-17T00:05:07.905Z,3.71
2022-11-17T00:07:34.988Z,3.68
2022-11-17T00:10:02.076Z,3.82
2022-11-17T00:12:47.556Z,3.78
2022-11-17T00:15:14.574Z,3.75
2022-11-17T00:17:41.516Z,3.70
2022-11-17T00:20:30.051Z,3.71
2022-11-17T00:22:57.057Z,3.70
2022-11-17T00:25:24.079Z,3.79
2022-11-17T00:27:51.099Z,3.70
2022-11-17T00:30:36.836Z,3.68
2022-11-17T00:33:23.201Z,3.73
2022-11-17T00:35:53.498Z,3.78
2022-11-17T00:38:20.641Z,3.70
2022-11-17T00:40:47.736Z,3.59
2022-11-17T00:43:14.798Z,3.68
2022-11-17T00:45:41.915Z,3.67
2022-11-17T00:48:08.871Z,3.61
2022-11-17T00:50:35.980Z,3.66
2022-11-17T00:53:03.035Z,3.68
2022-11-17T00:55:30.103Z,3.71
2022-11-17T00:57:57.163Z,3.58
2022-11-17T01:00:24.155Z,3.65
2022-11-17T01:02:51.137Z,3.57
2022-11-17T01:05:18.212Z,3.57
2022-11-17T01:07:46.877Z,3.55
2022-11-17T01:10:14.164Z,3.52
2022-11-17T01:12:41.156Z,3.57
2022-11-17T01:15:09.522Z,3.55
2022-11-17T01:17:36.619Z,3.51
2022-11-17T01:20:04.439Z,3.53
2022-11-17T01:22:31.384Z,3.47
2022-11-17T01:24:58.427Z,3.56
2022-11-17T01:27:25.432Z,3.59
2022-11-17T01:29:52.600Z,3.57
2022-11-17T01:32:19.580Z,3.54
2022-11-17T01:34:47.645Z,3.52
2022-11-17T01:37:20.468Z,3.59
2022-11-17T01:39:49.511Z,3.34
2022-11-17T01:42:24.665Z,3.50
2022-11-17T01:45:20.724Z,3.42
2022-11-17T01:48:01.499Z,3.39
2022-11-17T01:50:43.550Z,3.55
2022-11-17T01:53:22.236Z,3.43
2022-11-17T01:55:59.508Z,3.40
2022-11-17T01:58:39.956Z,3.48
2022-11-17T02:01:07.092Z,3.45
2022-11-17T02:03:36.587Z,3.49
2022-11-17T02:06:16.328Z,3.55
2022-11-17T02:08:46.907Z,3.35
2022-11-17T02:11:18.797Z,3.56
2022-11-17T02:13:46.267Z,3.52
2022-11-17T02:16:16.468Z,3.41
2022-11-17T02:18:45.452Z,3.52
2022-11-17T02:21:36.390Z,3.44
2022-11-17T02:24:55.939Z,3.47
2022-11-17T02:27:34.289Z,3.43
2022-11-17T02:30:16.701Z,3.43
2022-11-17T02:33:06.883Z,3.37
2022-11-17T02:36:07.025Z,3.37
2022-11-17T02:38:58.162Z,3.35
2022-11-17T02:41:34.841Z,3.30
2022-11-17T02:44:09.314Z,3.47
2022-11-17T02:46:57.793Z,3.45
2022-11-17T02:49:34.102Z,3.32
2022-11-17T02:52:02.404Z,3.40
2022-11-17T02:54:32.165Z,3.36
2022-11-17T02:56:59.984Z,3.38
2022-11-17T02:59:37.713Z,3.42
2022-11-17T03:02:28.007Z,3.47
2022-11-17T03:05:15.181Z,3.41
2022-11-17T03:08:09.221Z,3.44
2022-11-17T03:11:12.368Z,3.40
2022-11-17T03:14:07.016Z,3.44
2022-11-17T03:17:06.693Z,3.34
2022-11-17T03:19:44.736Z,3.36
2022-11-17T03:22:30.413Z,3.40
2022-11-17T03:25:06.810Z,3.39
2022-11-17T03:27:40.236Z,3.37
2022-11-17T03:30:10.442Z,3.36
2022-11-17T03:32:45.898Z,3.40
2022-11-17T03:35:23.770Z,3.37
2022-11-17T03:37:57.053Z,3.36
2022-11-17T03:40:30.038Z,3.43
2022-11-17T03:43:02.355Z,3.33
2022-11-17T03:45:44.226Z,3.31
2022-11-17T03:48:30.344Z,3.30
2022-11-17T03:51:11.223Z,3.39
2022-11-17T03:53:38.521Z,3.31
2022-11-17T03:57:04.321Z,3.35
2022-11-17T03:59:43.128Z,3.22
2022-11-17T04:02:19.415Z,3.38
2022-11-17T04:05:05.410Z,3.33
2022-11-17T04:07:42.702Z,3.36
2022-11-17T04:10:20.166Z,3.37
2022-11-17T04:13:07.839Z,3.39
2022-11-17T04:15:54.336Z,3.44
2022-11-17T04:18:22.939Z,3.35
2022-11-17T04:20:54.039Z,3.42
2022-11-17T04:23:22.533Z,3.47
2022-11-17T04:26:12.750Z,3.50
2022-11-17T04:28:46.551Z,3.46
2022-11-17T04:31:22.600Z,3.49
2022-11-17T04:33:57.128Z,3.46
2022-11-17T04:36:29.616Z,3.43
2022-11-17T04:38:59.656Z,3.47
2022-11-17T04:41:48.382Z,3.45
2022-11-17T04:44:17.765Z,3.41
2022-11-17T04:46:46.116Z,3.49
2022-11-17T04:49:16.375Z,3.48
2022-11-17T04:51:43.821Z,3.48
2022-11-17T04:54:15.217Z,3.46
2022-11-17T04:56:43.119Z,3.46
2022-11-17T04:59:10.589Z,3.44
2022-11-17T05:01:38.407Z,3.47
2022-11-17T05:04:09.872Z,3.56
2022-11-17T05:06:45.021Z,3.50
2022-11-17T05:09:16.608Z,3.49
2022-11-17T05:12:02.537Z,3.52
2022-11-17T05:14:30.346Z,3.56
2022-11-17T05:17:11.258Z,3.51
2022-11-17T05:19:47.256Z,3.48
2022-11-17T05:22:42.490Z,3.53
2022-11-17T05:25:10.218Z,3.55
2022-11-17T05:27:37.532Z,3.57
2022-11-17T05:30:07.986Z,3.53
2022-11-17T05:32:36.473Z,3.57
2022-11-17T05:35:03.730Z,3.59
2022-11-17T05:37:30.697Z,3.59
2022-11-17T05:39:57.733Z,3.59
2022-11-17T05:42:24.812Z,3.64
2022-11-17T05:44:51.860Z,3.68
2022-11-17T05:47:18.830Z,3.60
2022-11-17T05:49:48.577Z,3.60
2022-11-17T05:52:15.705Z,3.66
2022-11-17T05:54:42.892Z,3.65
2022-11-17T05:57:17.101Z,3.62
2022-11-17T05:59:59.606Z,3.63
2022-11-17T06:02:37.404Z,3.55
2022-11-17T06:05:05.794Z,3.65
2022-11-17T06:07:37.111Z,3.66
2022-11-17T06:10:05.008Z,3.70
2022-11-17T06:12:31.968Z,3.61
2022-11-17T06:14:59.009Z,3.68
2022-11-17T06:17:43.058Z,3.66
2022-11-17T06:20:28.051Z,3.70
2022-11-17T06:23:00.402Z,3.70
2022-11-17T06:25:28.419Z,3.71
2022-11-17T06:27:57.025Z,3.76
2022-11-17T06:30:24.390Z,3.69
2022-11-17T06:32:52.934Z,3.69
2022-11-17T06:35:20.164Z,3.81
2022-11-17T06:37:47.161Z,3.80
2022-11-17T06:40:14.638Z,3.83
2022-11-17T06:43:00.381Z,3.85
2022-11-17T06:45:27.377Z,3.84
2022-11-17T06:47:54.837Z,3.85
2022-11-17T06:50:22.233Z,3.88
2022-11-17T06:52:50.770Z,3.90
2022-11-17T06:55:18.558Z,3.79
2022-11-17T06:57:50.340Z,3.82
2022-11-17T07:00:20.763Z,3.83
2022-11-17T07:02:47.772Z,3.89
2022-11-17T07:05:17.989Z,3.82
2022-11-17T07:08:12.603Z,3.87
2022-11-17T07:10:41.645Z,3.85
2022-11-17T07:13:11.992Z,3.97
2022-11-17T07:15:39.071Z,3.97
2022-11-17T07:18:06.176Z,3.89
2022-11-17T07:20:33.243Z,4.01
2022-11-17T07:23:00.501Z,3.98
2022-11-17T07:25:39.496Z,3.95
2022-11-17T07:28:07.080Z,4.00
2022-11-17T07:30:35.002Z,4.11
2022-11-17T07:33:02.351Z,4.04
2022-11-17T07:35:31.728Z,4.11
2022-11-17T07:38:01.391Z,4.12
2022-11-17T07:40:30.932Z,4.14
2022-11-17T07:42:57.937Z,4.15
2022-11-17T07:45:28.666Z,4.20
2022-11-17T07:48:04.913Z,4.16
2022-11-17T07:50:33.476Z,4.26
2022-11-17T07:53:00.603Z,4.15
2022-11-17T07:55:28.106Z,4.19
2022-11-17T07:58:00.917Z,4.25
2022-11-17T08:00:31.768Z,4.32
2022-11-17T08:03:04.552Z,4.30
2022-11-17T08:05:40.089Z,4.37
2022-11-17T08:08:09.380Z,4.30
2022-11-17T08:10:36.855Z,4.33
2022-11-17T08:13:04.475Z,4.31
2022-11-17T08:15:31.919Z,4.30
2022-11-17T08:18:01.231Z,4.30
2022-11-17T08:20:29.543Z,4.25
2022-11-17T08:22:57.336Z,4.32
2022-11-17T08:25:26.998Z,4.37
2022-11-17T08:27:59.181Z,4.27
2022-11-17T08:30:26.835Z,4.42
2022-11-17T08:32:55.300Z,4.35
2022-11-17T08:35:26.594Z,4.33
2022-11-17T08:37:55.416Z,4.35
2022-11-17T08:40:22.645Z,4.40
2022-11-17T08:43:00.425Z,4.35
2022-11-17T08:45:28.744Z,4.30
2022-11-17T08:47:58.423Z,4.31
2022-11-17T08:50:26.773Z,4.31
2022-11-17T08:52:54.192Z,4.33
2022-11-17T08:55:21.304Z,4.40
2022-11-17T08:57:48.419Z,4.39
2022-11-17T09:00:16.637Z,4.39
2022-11-17T09:02:43.908Z,4.50
2022-11-17T09:05:10.846Z,4.35
2022-11-17T09:07:38.137Z,4.43
2022-11-17T09:10:06.319Z,4.46
2022-11-17T09:12:33.415Z,4.48
2022-11-17T09:15:00.453Z,4.39
2022-11-17T09:17:27.545Z,4.46
2022-11-17T09:20:11.638Z,4.46
2022-11-17T09:22:38.632Z,4.47
2022-11-17T09:25:11.875Z,4.57
2022-11-17T09:27:40.930Z,4.46
2022-11-17T09:30:09.171Z,4.45
2022-11-17T09:32:36.270Z,4.48
2022-11-17T09:35:07.012Z,4.51
2022-11-17T09:37:34.242Z,4.51
2022-11-17T09:40:01.277Z,4.50
2022-11-17T09:42:33.010Z,4.35
2022-11-17T09:45:27.952Z,4.54
2022-11-17T09:48:33.720Z,4.58
2022-11-17T09:50:50.498Z,4.55
2022-11-17T09:53:57.136Z,4.47
2022-11-17T09:56:27.264Z,4.65
2022-11-17T09:59:01.366Z,4.62
2022-11-17T10:01:29.671Z,4.56
2022-11-17T10:03:59.304Z,4.63
2022-11-17T10:06:31.448Z,4.72
2022-11-17T10:09:43.900Z,4.64
2022-11-17T10:12:23.733Z,4.71
2022-11-17T10:14:54.098Z,4.63
2022-11-17T10:17:21.191Z,4.62
2022-11-17T10:19:48.312Z,4.58
2022-11-17T10:22:36.747Z,4.71
2022-11-17T10:25:04.339Z,4.65
2022-11-17T10:27:35.215Z,4.69
2022-11-17T10:30:25.884Z,4.77
2022-11-17T10:32:57.076Z,4.66
2022-11-17T10:35:34.701Z,4.71
2022-11-17T10:38:20.955Z,4.70
2022-11-17T10:40:51.580Z,4.76
2022-11-17T10:43:28.762Z,4.75
2022-11-17T10:46:06.230Z,4.73
2022-11-17T10:48:54.250Z,4.83
2022-11-17T10:51:23.614Z,4.84
2022-11-17T10:54:20.907Z,4.87
2022-11-17T10:56:57.464Z,4.89
2022-11-17T10:59:42.298Z,4.82
2022-11-17T11:02:31.647Z,4.75
2022-11-17T11:05:21.200Z,4.72
2022-11-17T11:07:48.401Z,4.82
2022-11-17T11:10:26.993Z,4.86
2022-11-17T11:13:31.058Z,4.63
2022-11-17T11:15:58.417Z,4.65
2022-11-17T11:18:30.328Z,4.69
2022-11-17T11:21:14.848Z,4.67
2022-11-17T11:24:00.295Z,4.64
2022-11-17T11:26:56.815Z,4.66
2022-11-17T11:30:05.937Z,4.73
2022-11-17T11:33:18.318Z,4.65
2022-11-17T11:36:22.646Z,4.56
2022-11-17T11:39:37.981Z,4.61
2022-11-17T11:42:19.130Z,4.75
2022-11-17T11:45:18.036Z,4.67
2022-11-17T11:48:01.649Z,4.66
2022-11-17T11:50:53.297Z,4.63
2022-11-17T11:53:33.770Z,4.54
2022-11-17T11:56:35.972Z,4.58
2022-11-17T11:59:22.034Z,4.61
2022-11-17T12:02:06.001Z,4.71
2022-11-17T12:04:51.484Z,4.71
2022-11-17T12:07:48.462Z,4.65
2022-11-17T12:10:49.405Z,4.65
2022-11-17T12:13:22.609Z,4.66
2022-11-17T12:15:49.765Z,4.71
2022-11-17T12:18:19.403Z,4.66
2022-11-17T12:21:05.797Z,4.65
2022-11-17T12:24:20.646Z,4.64
2022-11-17T12:26:47.626Z,4.63
2022-11-17T12:29:20.273Z,4.68
2022-11-17T12:32:02.391Z,4.64
2022-11-17T12:34:40.170Z,4.57
2022-11-17T12:37:19.342Z,4.59
2022-11-17T12:40:02.159Z,4.60
2022-11-17T12:42:32.875Z,4.61
2022-11-17T12:45:04.460Z,4.62
2022-11-17T12:48:26.501Z,4.55
2022-11-17T12:51:55.567Z,4.58
2022-11-17T12:54:44.352Z,4.66
2022-11-17T12:57:25.396Z,4.62
2022-11-17T13:00:24.557Z,4.72
2022-11-17T13:03:17.527Z,4.52
2022-11-17T13:05:44.643Z,4.63
2022-11-17T13:08:23.374Z,4.53
2022-11-17T13:10:54.234Z,4.56
2022-11-17T13:13:25.463Z,4.58
2022-11-17T13:16:00.562Z,4.58
2022-11-17T13:18:43.159Z,4.53
2022-11-17T13:21:32.136Z,4.58
2022-11-17T13:28:32.174Z,4.47
2022-11-17T13:31:01.142Z,4.57
2022-11-17T13:33:30.935Z,4.60
2022-11-17T13:36:19.825Z,4.46
2022-11-17T13:38:50.302Z,4.58
2022-11-17T13:41:21.426Z,4.50
2022-11-17T13:43:50.440Z,4.54
2022-11-17T13:46:18.348Z,4.49
2022-11-17T13:48:48.970Z,4.49
2022-11-17T13:51:40.660Z,4.51
2022-11-17T13:54:18.606Z,4.54
2022-11-17T13:56:56.000Z,4.47
2022-11-17T13:59:33.839Z,4.36
2022-11-17T14:02:19.305Z,4.34
2022-11-17T14:05:13.396Z,4.43
2022-11-17T14:07:43.039Z,4.38
2022-11-17T14:10:21.934Z,4.30
2022-11-17T14:13:02.397Z,4.32
2022-11-17T14:15:47.950Z,4.26
2022-11-17T14:18:38.133Z,4.25
2022-11-17T14:21:17.293Z,4.24
2022-11-17T14:23:45.191Z,4.31
2022-11-17T14:26:25.260Z,4.22
2022-11-17T14:28:53.242Z,4.19
2022-11-17T14:31:20.507Z,4.12
2022-11-17T14:33:47.604Z,4.13
2022-11-17T14:36:17.315Z,4.05
2022-11-17T14:38:49.648Z,4.10
2022-11-17T14:41:18.904Z,4.09
2022-11-17T14:43:46.743Z,4.09
2022-11-17T14:46:26.386Z,4.07
2022-11-17T14:48:55.436Z,4.06
2022-11-17T14:51:22.987Z,4.01
2022-11-17T14:53:50.834Z,4.08
2022-11-17T14:56:22.696Z,4.01
2022-11-17T14:58:57.114Z,4.07
2022-11-17T15:01:34.690Z,4.02
2022-11-17T15:04:27.061Z,4.06
2022-11-17T15:06:51.768Z,4.00
2022-11-17T15:09:20.515Z,4.01
2022-11-17T15:11:48.207Z,3.99
2022-11-17T15:14:15.584Z,4.01
2022-11-17T15:16:43.118Z,4.01
2022-11-17T15:19:10.286Z,4.01
2022-11-17T15:21:37.379Z,3.95
2022-11-17T15:24:06.444Z,3.99
2022-11-17T15:26:34.100Z,4.03
2022-11-17T15:29:20.489Z,3.92
2022-11-17T15:31:48.069Z,3.91
2022-11-17T15:34:19.940Z,3.91
2022-11-17T15:36:48.960Z,3.87
2022-11-17T15:39:17.002Z,3.97
2022-11-17T15:41:45.160Z,3.84
2022-11-17T15:44:12.137Z,3.85
2022-11-17T15:46:44.342Z,3.90
2022-11-17T15:49:14.604Z,3.90
2022-11-17T15:51:41.775Z,3.88
2022-11-17T15:54:16.678Z,3.89
2022-11-17T15:56:47.578Z,3.93
2022-11-17T15:59:15.207Z,3.93
2022-11-17T16:01:42.524Z,3.92
2022-11-17T16:04:14.671Z,3.91
2022-11-17T16:06:44.958Z,3.82
2022-11-17T16:09:17.489Z,3.92
2022-11-17T16:11:47.483Z,3.87
2022-11-17T16:14:14.996Z,3.82
2022-11-17T16:16:43.674Z,3.85
2022-11-17T16:19:10.851Z,3.81
2022-11-17T16:21:38.629Z,3.83
2022-11-17T16:24:07.997Z,3.89
2022-11-17T16:26:35.761Z,3.93
2022-11-17T16:29:07.408Z,3.89
2022-11-17T16:31:36.629Z,3.86
2022-11-17T16:34:21.799Z,3.88
2022-11-17T16:36:48.830Z,3.91
2022-11-17T16:39:17.379Z,3.88
2022-11-17T16:41:46.573Z,3.88
2022-11-17T16:44:18.152Z,3.84
2022-11-17T16:46:50.091Z,3.83
2022-11-17T16:49:19.917Z,3.75
2022-11-17T16:52:10.469Z,3.64
2022-11-17T16:54:37.754Z,3.66
2022-11-17T16:57:04.918Z,3.66
2022-11-17T16:59:31.994Z,3.64
2022-11-17T17:01:59.044Z,3.62
2022-11-17T17:04:30.519Z,3.52
2022-11-17T17:06:58.357Z,3.61
2022-11-17T17:09:28.055Z,3.60
2022-11-17T17:12:02.815Z,3.61
2022-11-17T17:14:29.951Z,3.62
2022-11-17T17:16:57.217Z,3.55
2022-11-17T17:19:24.380Z,3.50
2022-11-17T17:21:52.924Z,3.57
2022-11-17T17:24:19.973Z,3.57
2022-11-17T17:26:47.472Z,3.54
2022-11-17T17:29:14.952Z,3.51
2022-11-17T17:31:42.718Z,3.55
2022-11-17T17:34:14.168Z,3.44
2022-11-17T17:36:41.449Z,3.49
2022-11-17T17:39:08.443Z,3.38
2022-11-17T17:41:40.815Z,3.50
2022-11-17T17:44:08.893Z,3.45
2022-11-17T17:46:38.647Z,3.49
2022-11-17T17:49:06.804Z,3.49
2022-11-17T17:51:44.217Z,3.51
2022-11-17T17:54:21.132Z,3.38
2022-11-17T17:56:48.822Z,3.47
2022-11-17T17:59:16.658Z,3.50
2022-11-17T18:01:46.108Z,3.42
2022-11-17T18:04:16.242Z,3.31
2022-11-17T18:06:48.251Z,3.39
2022-11-17T18:09:19.116Z,3.37
2022-11-17T18:11:50.064Z,3.37
2022-11-17T18:14:22.368Z,3.38
2022-11-17T18:16:50.986Z,3.42
2022-11-17T18:19:19.413Z,3.42
2022-11-17T18:21:46.881Z,3.36
2022-11-17T18:24:14.026Z,3.40
2022-11-17T18:26:47.515Z,3.40
2022-11-17T18:29:18.689Z,3.37
2022-11-17T18:31:47.570Z,3.33
2022-11-17T18:34:26.351Z,3.29
2022-11-17T18:36:55.791Z,3.34
2022-11-17T18:39:23.448Z,3.25
2022-11-17T18:41:50.723Z,3.33
2022-11-17T18:44:19.614Z,3.23
2022-11-17T18:46:50.420Z,3.33
2022-11-17T18:49:17.768Z,3.28
2022-11-17T18:51:45.768Z,3.27
2022-11-17T18:54:13.459Z,3.29
2022-11-17T18:56:40.587Z,3.31
2022-11-17T18:59:11.458Z,3.32
2022-11-17T19:01:42.195Z,3.22
2022-11-17T19:04:13.538Z,3.17
2022-11-17T19:06:40.914Z,3.22
2022-11-17T19:09:08.243Z,3.16
2022-11-17T19:11:35.319Z,3.20
2022-11-17T19:14:04.151Z,3.20
2022-11-17T19:16:32.781Z,3.16
2022-11-17T19:19:00.463Z,3.13
2022-11-17T19:21:31.669Z,3.07
2022-11-17T19:24:03.204Z,2.99
2022-11-17T19:26:34.139Z,3.04
2022-11-17T19:29:09.876Z,3.06
2022-11-17T19:31:39.863Z,3.00
2022-11-17T19:34:06.973Z,2.91
2022-11-17T19:36:34.617Z,2.90
2022-11-17T19:39:03.672Z,2.82
2022-11-17T19:41:38.209Z,2.80
2022-11-17T19:44:08.639Z,2.70
2022-11-17T19:46:36.904Z,2.64
2022-11-17T19:49:06.205Z,2.73
2022-11-17T19:51:36.853Z,2.71
2022-11-17T19:54:08.350Z,2.65
2022-11-17T19:56:39.349Z,2.67
2022-11-17T19:59:11.001Z,2.53
2022-11-17T20:01:41.132Z,2.52
2022-11-17T20:04:08.187Z,2.45
2022-11-17T20:06:38.301Z,2.45
2022-11-17T20:09:12.061Z,2.32
2022-11-17T20:11:40.147Z,2.19
2022-11-17T20:14:07.736Z,2.28
2022-11-17T20:16:36.656Z,2.26
2022-11-17T20:19:03.708Z,2.34
2022-11-17T20:21:31.424Z,2.35
2022-11-17T20:23:59.276Z,2.25
2022-11-17T20:26:31.876Z,2.19
2022-11-17T20:29:00.569Z,2.17
2022-11-17T20:31:32.110Z,2.06
2022-11-17T20:34:01.484Z,2.12
2022-11-17T20:36:32.631Z,2.20
2022-11-17T20:39:03.508Z,2.16
2022-11-17T20:41:31.326Z,2.12
2022-11-17T20:44:00.571Z,2.10
2022-11-17T20:46:28.191Z,2.12
2022-11-17T20:48:55.466Z,2.05
2022-11-17T20:51:25.202Z,2.08
2022-11-17T20:53:52.779Z,2.17
2022-11-17T20:56:20.303Z,2.07
2022-11-17T20:58:47.461Z,2.16
2022-11-17T21:01:21.588Z,2.13
2022-11-17T21:03:49.257Z,2.16
2022-11-17T21:06:16.778Z,2.11
2022-11-17T21:08:45.535Z,2.07
2022-11-17T21:11:41.881Z,2.08
2022-11-17T21:14:12.635Z,2.06
2022-11-17T21:16:45.504Z,2.05
2022-11-17T21:19:14.522Z,2.01
2022-11-17T21:21:43.685Z,2.05
2022-11-17T21:24:11.361Z,2.02
2022-11-17T21:26:38.510Z,2.05
2022-11-17T21:29:06.923Z,2.02
2022-11-17T21:31:43.978Z,2.02
2022-11-17T21:34:17.500Z,1.97
2022-11-17T21:36:44.625Z,1.95
2022-11-17T21:39:18.045Z,1.87
2022-11-17T21:41:45.743Z,1.92
2022-11-17T21:44:15.749Z,1.90
2022-11-17T21:46:42.842Z,1.91
2022-11-17T21:49:09.832Z,1.95
2022-11-17T21:51:38.470Z,1.86
2022-11-17T21:54:10.011Z,1.86
2022-11-17T21:56:37.745Z,1.76
2022-11-17T21:59:13.265Z,1.82
2022-11-17T22:01:40.680Z,1.79
2022-11-17T22:04:07.801Z,1.83
2022-11-17T22:06:35.106Z,1.82
2022-11-17T22:09:02.124Z,1.83
2022-11-17T22:11:37.678Z,1.63
2022-11-17T22:14:19.250Z,1.78
2022-11-17T22:16:51.879Z,1.80
2022-11-17T22:19:21.806Z,1.73
2022-11-17T22:21:52.569Z,1.72
2022-11-17T22:24:21.161Z,1.86
2022-11-17T22:26:48.811Z,1.70
2022-11-17T22:29:21.763Z,1.80
2022-11-17T22:31:50.529Z,1.66
2022-11-17T22:34:18.581Z,1.67
2022-11-17T22:36:46.022Z,1.70
2022-11-17T22:39:13.346Z,1.70
2022-11-17T22:41:40.365Z,1.65
2022-11-17T22:44:07.454Z,1.73
2022-11-17T22:46:36.065Z,1.71
2022-11-17T22:49:03.514Z,1.72
2022-11-17T22:51:49.376Z,1.62
2022-11-17T22:54:16.630Z,1.71
2022-11-17T22:56:43.610Z,1.75
2022-11-17T22:59:10.614Z,1.75
2022-11-17T23:01:38.037Z,1.74
2022-11-17T23:04:06.069Z,1.60
2022-11-17T23:06:33.154Z,1.71
2022-11-17T23:09:00.213Z,1.69
2022-11-17T23:11:43.404Z,1.50
2022-11-17T23:14:14.051Z,1.56
2022-11-17T23:16:41.274Z,1.62
2022-11-17T23:19:13.178Z,1.57
2022-11-17T23:21:40.788Z,1.62
2022-11-17T23:24:09.859Z,1.56
2022-11-17T23:26:36.859Z,1.64
2022-11-17T23:29:03.936Z,1.64
2022-11-17T23:31:30.943Z,1.61
2022-11-17T23:33:57.976Z,1.58
2022-11-17T23:36:25.143Z,1.58
2022-11-17T23:38:54.771Z,1.57
2022-11-17T23:41:21.914Z,1.64
2022-11-17T23:43:54.326Z,1.56
2022-11-17T23:46:26.336Z,1.53
2022-11-17T23:48:55.217Z,1.40
2022-11-17T23:51:26.744Z,1.51
2022-11-17T23:53:53.990Z,1.43
2022-11-17T23:56:21.569Z,1.53
2022-11-17T23:58:49.932Z,1.52
